createdAt,value
2018-06-03T00:01:04.218Z,81.35
2018-06-03T00:03:30.530Z,80.87
2018-06-03T00:05:56.848Z,80.74
2018-06-03T00:08:23.150Z,79.99
2018-06-03T00:10:49.459Z,79.14
2018-06-03T00:13:15.763Z,77.66
2018-06-03T00:15:42.083Z,77.66
2018-06-03T00:18:08.389Z,77.88
2018-06-03T00:20:34.696Z,78.29
2018-06-03T00:23:01.002Z,77.79
2018-06-03T00:25:27.310Z,77.77
2018-06-03T00:27:53.613Z,77.73
2018-06-03T00:30:19.926Z,77.50
2018-06-03T00:32:46.309Z,76.44
2018-06-03T00:35:12.622Z,76.53
2018-06-03T00:37:39.001Z,77.09
2018-06-03T00:40:05.306Z,77.65
2018-06-03T00:42:31.606Z,76.86
2018-06-03T00:44:57.961Z,76.73
2018-06-03T00:47:24.301Z,76.99
2018-06-03T00:49:50.610Z,76.44
2018-06-03T00:52:16.912Z,76.35
2018-06-03T00:54:43.223Z,76.36
2018-06-03T00:57:09.592Z,76.63
2018-06-03T00:59:35.890Z,76.29
2018-06-03T01:02:02.203Z,77.37
2018-06-03T01:04:28.551Z,78.25
2018-06-03T01:06:54.914Z,78.80
2018-06-03T01:09:21.217Z,79.08
2018-06-03T01:11:47.529Z,79.17
2018-06-03T01:14:13.829Z,79.73
2018-06-03T01:16:40.137Z,80.47
2018-06-03T01:19:06.452Z,80.94
2018-06-03T01:21:32.760Z,80.96
2018-06-03T01:23:59.058Z,81.39
2018-06-03T01:26:25.412Z,81.39
2018-06-03T01:28:51.730Z,81.26
2018-06-03T01:31:18.038Z,81.32
2018-06-03T01:33:44.351Z,81.42
2018-06-03T01:36:10.659Z,81.12
2018-06-03T01:38:37.051Z,81.65
2018-06-03T01:41:03.350Z,81.88
2018-06-03T01:43:29.668Z,81.25
2018-06-03T01:45:55.969Z,81.41
2018-06-03T01:48:22.301Z,81.54
2018-06-03T01:50:48.607Z,81.56
2018-06-03T01:53:14.914Z,81.93
2018-06-03T01:55:41.259Z,82.24
2018-06-03T01:58:07.568Z,82.62
2018-06-03T02:00:33.866Z,82.61
2018-06-03T02:03:00.179Z,82.58
2018-06-03T02:05:26.528Z,82.85
2018-06-03T02:07:52.870Z,83.01
2018-06-03T02:10:19.181Z,82.12
2018-06-03T02:12:45.499Z,81.71
2018-06-03T02:15:11.871Z,81.72
2018-06-03T02:17:38.170Z,82.06
2018-06-03T02:20:04.474Z,82.58
2018-06-03T02:22:30.787Z,82.96
2018-06-03T02:24:57.104Z,83.04
2018-06-03T02:27:23.444Z,83.01
2018-06-03T02:29:49.749Z,83.10
2018-06-03T02:32:16.067Z,83.21
2018-06-03T02:34:42.371Z,83.17
2018-06-03T02:37:08.773Z,83.42
2018-06-03T02:39:35.092Z,83.76
2018-06-03T02:42:01.413Z,84.06
2018-06-03T02:44:27.750Z,83.32
2018-06-03T02:46:54.053Z,82.60
2018-06-03T02:49:20.364Z,81.50
2018-06-03T02:51:46.679Z,81.49
2018-06-03T02:54:12.984Z,81.38
2018-06-03T02:56:39.285Z,81.53
2018-06-03T02:59:05.647Z,81.02
2018-06-03T03:01:31.962Z,80.40
2018-06-03T03:03:58.272Z,79.90
2018-06-03T03:06:24.587Z,80.16
2018-06-03T03:08:50.901Z,80.74
2018-06-03T03:11:17.217Z,80.68
2018-06-03T03:13:43.523Z,80.45
2018-06-03T03:16:09.836Z,80.38
2018-06-03T03:18:36.181Z,80.42
2018-06-03T03:21:02.483Z,80.84
2018-06-03T03:23:28.792Z,81.14
2018-06-03T03:25:55.100Z,81.47
2018-06-03T03:28:21.427Z,81.23
2018-06-03T03:30:47.734Z,81.44
2018-06-03T03:33:14.039Z,80.86
2018-06-03T03:35:40.342Z,80.56
2018-06-03T03:38:06.650Z,79.78
2018-06-03T03:40:32.953Z,79.29
2018-06-03T03:42:59.265Z,78.34
2018-06-03T03:45:25.575Z,77.99
2018-06-03T03:47:51.931Z,77.27
2018-06-03T03:50:18.241Z,78.00
2018-06-03T03:52:44.552Z,77.01
2018-06-03T03:55:10.864Z,77.79
2018-06-03T03:57:37.173Z,77.15
2018-06-03T04:00:04.641Z,76.50
2018-06-03T04:02:30.954Z,76.93
2018-06-03T04:04:57.264Z,77.39
2018-06-03T04:07:23.577Z,76.99
2018-06-03T04:09:49.885Z,76.61
2018-06-03T04:12:16.190Z,76.44
2018-06-03T04:14:42.507Z,76.36
2018-06-03T04:17:08.811Z,76.12
2018-06-03T04:19:35.118Z,75.91
2018-06-03T04:22:01.429Z,75.28
2018-06-03T04:24:27.736Z,74.48
2018-06-03T04:26:54.046Z,74.91
2018-06-03T04:29:20.355Z,73.83
2018-06-03T04:31:46.670Z,73.36
2018-06-03T04:34:12.981Z,72.62
2018-06-03T04:36:39.291Z,72.04
2018-06-03T04:39:05.609Z,71.45
2018-06-03T04:41:31.929Z,71.62
2018-06-03T04:43:58.247Z,71.89
2018-06-03T04:46:24.575Z,71.30
2018-06-03T04:48:50.904Z,70.47
2018-06-03T04:51:17.191Z,69.89
2018-06-03T04:53:43.494Z,69.00
2018-06-03T04:56:09.801Z,68.50
2018-06-03T04:58:36.107Z,68.71
2018-06-03T05:01:02.411Z,69.07
2018-06-03T05:03:28.726Z,67.83
2018-06-03T05:05:55.046Z,67.28
2018-06-03T05:08:21.357Z,67.79
2018-06-03T05:10:47.673Z,66.47
2018-06-03T05:13:13.984Z,66.25
2018-06-03T05:15:40.342Z,65.05
2018-06-03T05:18:06.646Z,64.19
2018-06-03T05:20:32.994Z,63.92
2018-06-03T05:22:59.310Z,63.36
2018-06-03T05:25:25.632Z,62.93
2018-06-03T05:27:51.938Z,62.28
2018-06-03T05:30:18.244Z,61.52
2018-06-03T05:32:44.561Z,59.94
2018-06-03T05:35:10.877Z,54.51
2018-06-03T05:37:37.231Z,52.55
2018-06-03T05:40:03.519Z,51.68
2018-06-03T05:42:29.870Z,52.05
2018-06-03T05:44:56.140Z,53.92
2018-06-03T05:47:22.493Z,54.24
2018-06-03T05:49:48.810Z,51.97
2018-06-03T05:52:15.138Z,51.20
2018-06-03T05:54:41.452Z,49.79
2018-06-03T05:57:07.761Z,47.36
2018-06-03T05:59:34.073Z,46.11
2018-06-03T06:02:00.387Z,46.35
2018-06-03T06:04:26.754Z,45.17
2018-06-03T06:06:53.055Z,45.43
2018-06-03T06:09:19.369Z,46.64
2018-06-03T06:11:45.693Z,47.87
2018-06-03T06:14:11.994Z,48.39
2018-06-03T06:16:38.303Z,48.46
2018-06-03T06:19:04.683Z,47.48
2018-06-03T06:21:30.991Z,45.94
2018-06-03T06:23:57.294Z,46.60
2018-06-03T06:26:23.607Z,47.67
2018-06-03T06:28:49.910Z,48.32
2018-06-03T06:31:16.213Z,47.95
2018-06-03T06:33:42.518Z,48.46
2018-06-03T06:36:08.823Z,48.64
2018-06-03T06:38:35.139Z,49.81
2018-06-03T06:41:01.446Z,48.23
2018-06-03T06:43:27.806Z,47.62
2018-06-03T06:45:54.115Z,48.30
2018-06-03T06:48:20.428Z,49.52
2018-06-03T06:50:46.745Z,48.99
2018-06-03T06:53:13.052Z,47.84
2018-06-03T06:55:39.369Z,46.85
2018-06-03T06:58:05.685Z,46.10
2018-06-03T07:00:32.002Z,45.44
2018-06-03T07:02:58.320Z,46.35
2018-06-03T07:05:25.935Z,46.77
2018-06-03T07:07:52.169Z,45.39
2018-06-03T07:10:18.518Z,45.69
2018-06-03T07:12:44.776Z,46.05
2018-06-03T07:15:11.081Z,44.43
2018-06-03T07:17:37.374Z,44.44
2018-06-03T07:20:03.665Z,45.35
2018-06-03T07:22:29.963Z,45.42
2018-06-03T07:24:56.265Z,45.48
2018-06-03T07:27:22.551Z,46.79
2018-06-03T07:29:48.923Z,47.12
2018-06-03T07:32:15.148Z,45.35
2018-06-03T07:34:41.446Z,44.85
2018-06-03T07:37:07.740Z,43.58
2018-06-03T07:39:34.049Z,43.52
2018-06-03T07:42:00.372Z,42.27
2018-06-03T07:44:26.716Z,41.48
2018-06-03T07:46:53.025Z,42.39
2018-06-03T07:49:19.360Z,42.04
2018-06-03T07:51:45.696Z,41.48
2018-06-03T07:54:11.962Z,40.38
2018-06-03T07:56:38.253Z,40.45
2018-06-03T07:59:04.632Z,41.15
2018-06-03T08:01:30.916Z,40.83
2018-06-03T08:03:57.215Z,40.91
2018-06-03T08:06:23.519Z,38.02
2018-06-03T08:08:49.806Z,37.35
2018-06-03T08:11:16.173Z,36.62
2018-06-03T08:13:42.483Z,36.75
2018-06-03T08:16:08.759Z,37.70
2018-06-03T08:18:35.055Z,37.53
2018-06-03T08:21:01.379Z,36.16
2018-06-03T08:23:27.644Z,36.59
2018-06-03T08:25:53.984Z,36.02
2018-06-03T08:28:20.311Z,36.57
2018-06-03T08:30:46.664Z,35.99
2018-06-03T08:33:12.953Z,35.91
2018-06-03T08:35:39.247Z,35.91
2018-06-03T08:38:05.579Z,35.49
2018-06-03T08:40:31.874Z,36.13
2018-06-03T08:42:58.195Z,36.26
2018-06-03T08:45:26.830Z,35.31
2018-06-03T08:47:53.177Z,35.49
2018-06-03T08:50:19.496Z,34.48
2018-06-03T08:52:45.760Z,34.45
2018-06-03T08:55:12.053Z,34.21
2018-06-03T08:57:38.364Z,35.18
2018-06-03T09:00:04.698Z,35.08
2018-06-03T09:02:30.958Z,35.62
2018-06-03T09:04:57.277Z,35.28
2018-06-03T09:07:23.565Z,35.84
2018-06-03T09:09:49.855Z,36.39
2018-06-03T09:12:16.155Z,35.64
2018-06-03T09:14:42.455Z,35.48
2018-06-03T09:17:08.790Z,35.68
2018-06-03T09:19:36.420Z,34.57
2018-06-03T09:22:01.407Z,34.48
2018-06-03T09:24:27.700Z,33.27
2018-06-03T09:26:54.002Z,32.88
2018-06-03T09:29:20.304Z,32.03
2018-06-03T09:31:46.615Z,32.80
2018-06-03T09:34:12.922Z,32.14
2018-06-03T09:36:39.273Z,33.54
2018-06-03T09:39:05.568Z,33.52
2018-06-03T09:41:31.872Z,33.30
2018-06-03T09:43:58.159Z,32.38
2018-06-03T09:46:24.458Z,32.72
2018-06-03T09:48:50.759Z,33.76
2018-06-03T09:51:17.092Z,32.39
2018-06-03T09:53:43.383Z,32.73
2018-06-03T09:56:12.396Z,33.34
2018-06-03T09:58:55.032Z,32.95
2018-06-03T10:01:21.326Z,32.84
2018-06-03T10:03:47.621Z,32.51
2018-06-03T10:06:13.968Z,31.72
2018-06-03T10:08:40.295Z,31.19
2018-06-03T10:11:06.635Z,31.75
2018-06-03T10:13:32.924Z,32.10
2018-06-03T10:15:59.220Z,31.94
2018-06-03T10:21:11.364Z,33.59
2018-06-03T10:23:37.477Z,36.37
2018-06-03T10:26:03.772Z,35.96
2018-06-03T10:28:30.238Z,34.62
2018-06-03T10:30:56.513Z,35.54
2018-06-03T10:33:22.799Z,34.66
2018-06-03T10:35:49.093Z,34.98
2018-06-03T10:38:15.380Z,36.88
2018-06-03T10:40:41.677Z,38.20
2018-06-03T10:43:07.988Z,36.99
2018-06-03T10:45:34.285Z,34.89
2018-06-03T10:48:00.585Z,34.41
2018-06-03T10:50:26.876Z,33.06
2018-06-03T10:52:53.164Z,34.68
2018-06-03T10:55:19.454Z,31.84
2018-06-03T10:57:45.742Z,33.48
2018-06-03T11:00:12.067Z,35.26
2018-06-03T11:02:38.364Z,36.69
2018-06-03T11:05:04.657Z,36.40
2018-06-03T11:07:30.959Z,36.30
2018-06-03T11:09:57.305Z,37.16
2018-06-03T11:12:23.634Z,42.22
2018-06-03T11:14:49.933Z,46.06
2018-06-03T11:17:16.220Z,48.16
2018-06-03T11:19:42.583Z,49.59
2018-06-03T11:22:08.900Z,52.56
2018-06-03T11:24:35.208Z,53.72
2018-06-03T11:27:01.509Z,56.07
2018-06-03T11:29:27.849Z,57.67
2018-06-03T11:31:54.139Z,58.79
2018-06-03T11:34:20.433Z,59.52
2018-06-03T11:36:46.724Z,61.19
2018-06-03T11:39:13.015Z,62.82
2018-06-03T11:41:39.312Z,64.58
2018-06-03T11:44:05.622Z,63.45
2018-06-03T11:46:31.920Z,64.21
2018-06-03T11:48:58.207Z,64.07
2018-06-03T11:51:24.501Z,62.52
2018-06-03T11:53:50.834Z,59.59
2018-06-03T11:56:17.097Z,57.97
2018-06-03T11:58:43.396Z,59.47
2018-06-03T12:01:09.700Z,59.60
2018-06-03T12:03:36.000Z,59.01
2018-06-03T12:06:02.287Z,57.47
2018-06-03T12:08:28.582Z,61.45
2018-06-03T12:10:54.877Z,62.86
2018-06-03T12:13:21.175Z,62.08
2018-06-03T12:15:47.465Z,59.93
2018-06-03T12:18:13.755Z,61.88
2018-06-03T12:20:40.047Z,61.85
2018-06-03T12:23:06.408Z,70.70
2018-06-03T12:25:32.725Z,74.57
2018-06-03T12:27:59.024Z,73.50
2018-06-03T12:30:25.316Z,70.15
2018-06-03T12:32:51.613Z,67.64
2018-06-03T12:35:17.939Z,65.96
2018-06-03T12:37:44.230Z,62.52
2018-06-03T12:40:10.524Z,61.43
2018-06-03T12:42:36.816Z,60.45
2018-06-03T12:45:03.106Z,60.21
2018-06-03T12:47:29.405Z,56.01
2018-06-03T12:49:55.696Z,54.30
2018-06-03T12:52:22.004Z,53.88
2018-06-03T12:54:48.287Z,51.25
2018-06-03T12:57:14.587Z,48.85
2018-06-03T12:59:40.897Z,47.69
2018-06-03T13:02:07.186Z,47.45
2018-06-03T13:04:33.527Z,46.90
2018-06-03T13:06:59.832Z,45.54
2018-06-03T13:09:26.171Z,46.88
2018-06-03T13:11:52.524Z,46.22
2018-06-03T13:14:18.787Z,44.04
2018-06-03T13:16:45.116Z,43.84
2018-06-03T13:19:11.445Z,44.33
2018-06-03T13:21:37.737Z,42.97
2018-06-03T13:24:04.035Z,44.54
2018-06-03T13:26:30.329Z,46.40
2018-06-03T13:28:56.657Z,44.69
2018-06-03T13:31:22.955Z,46.09
2018-06-03T13:33:49.286Z,45.40
2018-06-03T13:36:15.588Z,46.95
2018-06-03T13:38:41.885Z,48.18
2018-06-03T13:41:08.216Z,49.49
2018-06-03T13:43:34.509Z,50.72
2018-06-03T13:46:00.805Z,51.01
2018-06-03T13:48:27.099Z,50.66
2018-06-03T13:50:53.399Z,51.29
2018-06-03T13:53:19.701Z,50.56
2018-06-03T13:55:45.983Z,49.24
2018-06-03T13:58:12.282Z,47.03
2018-06-03T14:00:38.576Z,47.51
2018-06-03T14:03:04.875Z,46.77
2018-06-03T14:05:31.191Z,46.45
2018-06-03T14:07:57.486Z,45.22
2018-06-03T14:10:23.774Z,44.68
2018-06-03T14:12:50.063Z,43.45
2018-06-03T14:15:16.359Z,43.49
2018-06-03T14:17:42.660Z,42.69
2018-06-03T14:20:08.952Z,42.78
2018-06-03T14:22:35.252Z,42.58
2018-06-03T14:25:01.619Z,43.37
2018-06-03T14:27:27.923Z,45.18
2018-06-03T14:29:54.221Z,49.87
2018-06-03T14:32:20.519Z,56.24
2018-06-03T14:34:46.819Z,61.50
2018-06-03T14:37:13.109Z,68.39
2018-06-03T14:39:39.404Z,72.38
2018-06-03T14:42:05.694Z,73.08
2018-06-03T14:44:32.062Z,71.12
2018-06-03T14:46:58.321Z,67.38
2018-06-03T14:49:24.620Z,66.17
2018-06-03T14:51:50.924Z,66.23
2018-06-03T14:54:17.217Z,64.19
2018-06-03T14:56:43.517Z,62.77
2018-06-03T14:59:09.762Z,63.44
2018-06-03T15:01:36.051Z,64.94
2018-06-03T15:04:02.351Z,65.32
2018-06-03T15:06:28.644Z,63.68
2018-06-03T15:08:54.976Z,62.71
2018-06-03T15:11:21.334Z,63.14
2018-06-03T15:13:47.704Z,62.29
2018-06-03T15:16:13.973Z,62.06
2018-06-03T15:18:40.266Z,62.59
2018-06-03T15:21:06.569Z,61.62
2018-06-03T15:23:32.918Z,62.63
2018-06-03T15:25:59.260Z,62.03
2018-06-03T15:28:25.554Z,60.80
2018-06-03T15:30:51.890Z,60.75
2018-06-03T15:33:18.195Z,61.06
2018-06-03T15:35:44.487Z,60.98
2018-06-03T15:38:10.791Z,61.50
2018-06-03T15:40:37.085Z,61.43
2018-06-03T15:43:03.464Z,61.73
2018-06-03T15:45:29.764Z,61.74
2018-06-03T15:47:56.053Z,61.24
2018-06-03T15:50:22.389Z,61.04
2018-06-03T15:52:48.672Z,61.02
2018-06-03T15:55:15.014Z,61.41
2018-06-03T15:57:41.321Z,59.04
2018-06-03T16:00:07.659Z,58.68
2018-06-03T16:02:33.960Z,58.15
2018-06-03T16:05:00.360Z,57.70
2018-06-03T16:07:26.593Z,58.41
2018-06-03T16:09:52.883Z,58.89
2018-06-03T16:12:19.189Z,57.91
2018-06-03T16:14:45.484Z,57.99
2018-06-03T16:17:11.783Z,57.49
2018-06-03T16:19:38.076Z,57.62
2018-06-03T16:22:04.400Z,57.69
2018-06-03T16:24:30.713Z,57.70
2018-06-03T16:26:57.001Z,57.61
2018-06-03T16:29:23.285Z,58.01
2018-06-03T16:31:49.576Z,58.01
2018-06-03T16:34:15.878Z,58.46
2018-06-03T16:36:42.212Z,59.00
2018-06-03T16:39:08.511Z,59.82
2018-06-03T16:41:34.808Z,60.39
2018-06-03T16:44:01.092Z,60.71
2018-06-03T16:46:27.382Z,60.86
2018-06-03T16:48:53.670Z,61.76
2018-06-03T16:51:19.970Z,61.93
2018-06-03T16:53:46.276Z,62.06
2018-06-03T16:56:12.573Z,62.27
2018-06-03T16:58:38.865Z,62.47
2018-06-03T17:01:05.174Z,62.80
2018-06-03T17:03:31.465Z,63.18
2018-06-03T17:05:57.755Z,63.54
2018-06-03T17:08:24.129Z,64.07
2018-06-03T17:10:50.601Z,64.50
2018-06-03T17:13:16.886Z,64.64
2018-06-03T17:15:43.179Z,64.29
2018-06-03T17:18:09.502Z,64.46
2018-06-03T17:20:35.864Z,64.71
2018-06-03T17:23:02.133Z,65.02
2018-06-03T17:25:28.425Z,65.23
2018-06-03T17:27:54.722Z,65.44
2018-06-03T17:30:21.021Z,65.75
2018-06-03T17:32:47.326Z,66.17
2018-06-03T17:35:13.636Z,66.74
2018-06-03T17:37:39.921Z,66.66
2018-06-03T17:40:06.217Z,66.76
2018-06-03T17:42:32.502Z,67.00
2018-06-03T17:44:58.803Z,67.35
2018-06-03T17:47:25.088Z,67.38
2018-06-03T17:49:51.385Z,67.35
2018-06-03T17:52:17.683Z,67.57
2018-06-03T17:54:43.979Z,67.77
2018-06-03T17:57:10.265Z,67.69
2018-06-03T17:59:36.563Z,67.79
2018-06-03T18:02:02.851Z,67.78
2018-06-03T18:04:29.143Z,67.55
2018-06-03T18:06:55.439Z,67.37
2018-06-03T18:09:21.732Z,67.49
2018-06-03T18:11:48.023Z,67.49
2018-06-03T18:14:14.387Z,67.45
2018-06-03T18:16:40.683Z,67.65
2018-06-03T18:19:06.978Z,67.92
2018-06-03T18:21:33.275Z,67.97
2018-06-03T18:23:59.563Z,67.67
2018-06-03T18:26:25.858Z,67.61
2018-06-03T18:28:52.163Z,68.09
2018-06-03T18:31:18.472Z,67.67
2018-06-03T18:33:44.759Z,67.65
2018-06-03T18:36:11.056Z,67.53
2018-06-03T18:38:37.343Z,67.74
2018-06-03T18:41:03.654Z,67.70
2018-06-03T18:43:29.935Z,68.22
2018-06-03T18:45:56.233Z,67.94
2018-06-03T18:48:22.535Z,68.07
2018-06-03T18:50:48.824Z,68.40
2018-06-03T18:53:15.128Z,68.31
2018-06-03T18:55:41.420Z,68.46
2018-06-03T18:58:07.707Z,68.64
2018-06-03T19:00:34.004Z,68.73
2018-06-03T19:03:00.297Z,69.27
2018-06-03T19:05:26.585Z,69.65
2018-06-03T19:07:52.880Z,70.03
2018-06-03T19:10:19.178Z,70.42
2018-06-03T19:12:45.513Z,70.85
2018-06-03T19:15:15.414Z,71.33
2018-06-03T19:17:50.553Z,71.30
2018-06-03T19:20:15.407Z,71.07
2018-06-03T19:22:41.749Z,70.90
2018-06-03T19:25:08.044Z,71.31
2018-06-03T19:27:34.363Z,71.82
2018-06-03T19:30:00.661Z,71.70
2018-06-03T19:32:26.959Z,71.43
2018-06-03T19:34:53.248Z,71.64
2018-06-03T19:37:19.545Z,71.86
2018-06-03T19:39:45.844Z,71.23
2018-06-03T19:42:12.185Z,71.27
2018-06-03T19:44:38.480Z,71.46
2018-06-03T19:47:04.774Z,71.07
2018-06-03T19:49:31.081Z,69.73
2018-06-03T19:51:57.424Z,68.96
2018-06-03T19:54:23.715Z,68.91
2018-06-03T19:56:50.014Z,68.45
2018-06-03T19:59:16.301Z,67.09
2018-06-03T20:01:43.025Z,66.85
2018-06-03T20:04:09.332Z,66.86
2018-06-03T20:06:35.623Z,66.05
2018-06-03T20:09:01.931Z,66.20
2018-06-03T20:11:28.216Z,66.69
2018-06-03T20:13:54.508Z,66.41
2018-06-03T20:16:20.800Z,67.02
2018-06-03T20:18:47.090Z,67.33
2018-06-03T20:21:13.394Z,66.99
2018-06-03T20:23:39.724Z,67.27
2018-06-03T20:26:06.020Z,67.33
2018-06-03T20:28:32.311Z,67.54
2018-06-03T20:30:58.608Z,67.75
2018-06-03T20:33:24.890Z,67.30
2018-06-03T20:35:51.187Z,67.57
2018-06-03T20:38:17.476Z,67.69
2018-06-03T20:40:43.798Z,67.52
2018-06-03T20:43:10.306Z,67.49
2018-06-03T20:45:36.564Z,66.91
2018-06-03T20:48:02.863Z,67.03
2018-06-03T20:50:29.157Z,67.49
2018-06-03T20:52:55.452Z,67.53
2018-06-03T20:55:21.742Z,67.81
2018-06-03T20:57:48.084Z,67.71
2018-06-03T21:00:14.417Z,67.21
2018-06-03T21:02:40.679Z,67.34
2018-06-03T21:05:06.971Z,67.74
2018-06-03T21:07:33.269Z,67.78
2018-06-03T21:09:59.565Z,67.51
2018-06-03T21:12:25.864Z,67.66
2018-06-03T21:14:52.154Z,67.26
2018-06-03T21:17:18.455Z,67.37
2018-06-03T21:19:44.747Z,67.55
2018-06-03T21:22:11.037Z,66.99
2018-06-03T21:24:37.334Z,67.09
2018-06-03T21:27:03.670Z,67.31
2018-06-03T21:29:29.964Z,66.97
2018-06-03T21:31:56.263Z,66.63
2018-06-03T21:34:22.590Z,67.09
2018-06-03T21:36:48.914Z,66.72
2018-06-03T21:39:15.206Z,66.57
2018-06-03T21:41:41.497Z,66.33
2018-06-03T21:44:07.794Z,66.43
2018-06-03T21:46:34.134Z,65.87
2018-06-03T21:49:00.428Z,65.47
2018-06-03T21:51:26.715Z,65.57
2018-06-03T21:53:53.016Z,65.28
2018-06-03T21:56:19.299Z,65.25
2018-06-03T21:58:45.594Z,65.38
2018-06-03T22:01:11.907Z,65.44
2018-06-03T22:03:38.201Z,65.40
2018-06-03T22:06:04.491Z,65.29
2018-06-03T22:08:30.781Z,65.88
2018-06-03T22:10:57.114Z,66.34
2018-06-03T22:13:23.447Z,66.39
2018-06-03T22:15:49.740Z,66.17
2018-06-03T22:18:16.031Z,66.45
2018-06-03T22:20:42.329Z,66.82
2018-06-03T22:23:08.623Z,66.17
2018-06-03T22:25:34.964Z,66.05
2018-06-03T22:28:01.252Z,66.07
2018-06-03T22:30:27.550Z,66.65
2018-06-03T22:32:56.331Z,66.52
2018-06-03T22:35:22.623Z,67.11
2018-06-03T22:37:48.912Z,66.39
2018-06-03T22:40:15.199Z,67.03
2018-06-03T22:42:41.496Z,67.38
2018-06-03T22:45:07.782Z,67.92
2018-06-03T22:47:34.073Z,67.49
2018-06-03T22:50:00.387Z,67.97
2018-06-03T22:52:26.676Z,67.54
2018-06-03T22:54:58.882Z,68.00
2018-06-03T22:57:25.140Z,67.47
2018-06-03T22:59:51.434Z,67.63
2018-06-03T23:02:17.772Z,67.05
2018-06-03T23:05:05.107Z,67.30
2018-06-03T23:07:21.082Z,67.00
2018-06-03T23:09:47.376Z,67.14
2018-06-03T23:12:13.684Z,66.34
2018-06-03T23:14:39.981Z,67.09
2018-06-03T23:17:06.274Z,66.34
2018-06-03T23:19:33.595Z,67.08
2018-06-03T23:21:59.930Z,67.13
2018-06-03T23:24:26.225Z,65.97
2018-06-03T23:26:52.525Z,65.73
2018-06-03T23:29:18.827Z,66.12
2018-06-03T23:31:45.124Z,66.30
2018-06-03T23:34:11.419Z,67.49
2018-06-03T23:36:37.730Z,66.48
2018-06-03T23:39:04.025Z,67.48
2018-06-03T23:41:30.311Z,66.97
2018-06-03T23:43:56.602Z,67.54
2018-06-03T23:46:22.891Z,68.28
2018-06-03T23:48:49.186Z,68.14
2018-06-03T23:51:15.483Z,68.86
2018-06-03T23:53:41.774Z,69.29
2018-06-03T23:56:08.115Z,69.54
2018-06-03T23:58:34.411Z,70.00
